createdAt,value
2022-08-07T00:00:12.746Z,20.25
2022-08-07T00:02:44.377Z,20.56
2022-08-07T00:05:11.463Z,20.57
2022-08-07T00:07:40.811Z,20.61
2022-08-07T00:10:26.838Z,20.37
2022-08-07T00:13:00.558Z,20.73
2022-08-07T00:15:37.891Z,20.87
2022-08-07T00:18:19.850Z,20.79
2022-08-07T00:20:49.723Z,20.22
2022-08-07T00:23:17.035Z,19.93
2022-08-07T00:25:43.822Z,19.84
2022-08-07T00:28:21.953Z,19.90
2022-08-07T00:30:49.449Z,19.87
2022-08-07T00:33:15.923Z,19.96
2022-08-07T00:35:46.508Z,19.98
2022-08-07T00:38:16.160Z,20.02
2022-08-07T00:40:58.272Z,19.93
2022-08-07T00:44:00.578Z,19.91
2022-08-07T00:46:14.290Z,19.76
2022-08-07T00:48:42.075Z,19.71
2022-08-07T00:51:09.338Z,19.83
2022-08-07T00:53:38.429Z,19.90
2022-08-07T00:56:13.692Z,20.03
2022-08-07T00:58:40.470Z,20.10
2022-08-07T01:01:10.354Z,20.03
2022-08-07T01:03:55.765Z,20.22
2022-08-07T01:06:23.575Z,20.33
2022-08-07T01:08:52.987Z,20.14
2022-08-07T01:12:09.677Z,20.45
2022-08-07T01:14:06.767Z,20.61
2022-08-07T01:16:34.598Z,20.58
2022-08-07T01:19:01.905Z,20.19
2022-08-07T01:21:33.023Z,20.31
2022-08-07T01:24:03.589Z,20.30
2022-08-07T01:26:30.322Z,20.25
2022-08-07T01:28:56.830Z,20.17
2022-08-07T01:31:23.365Z,20.14
2022-08-07T01:33:56.310Z,20.00
2022-08-07T01:36:33.327Z,19.68
2022-08-07T01:39:00.421Z,19.60
2022-08-07T01:41:27.114Z,19.46
2022-08-07T01:43:53.677Z,19.64
2022-08-07T01:46:21.440Z,19.74
2022-08-07T01:48:48.205Z,19.82
2022-08-07T01:51:58.560Z,19.69
2022-08-07T01:54:12.160Z,19.88
2022-08-07T01:56:49.387Z,19.91
2022-08-07T01:59:16.416Z,20.04
2022-08-07T02:02:01.607Z,19.81
2022-08-07T02:04:30.347Z,19.80
2022-08-07T02:06:57.769Z,19.66
2022-08-07T02:09:51.854Z,19.57
2022-08-07T02:12:10.969Z,19.69
2022-08-07T02:14:44.183Z,19.51
2022-08-07T02:17:13.450Z,19.49
2022-08-07T02:20:04.818Z,19.73
2022-08-07T02:22:33.843Z,19.93
2022-08-07T02:25:01.335Z,19.85
2022-08-07T02:27:34.760Z,19.75
2022-08-07T02:30:03.544Z,20.04
2022-08-07T02:32:33.259Z,19.83
2022-08-07T02:35:01.932Z,20.06
2022-08-07T02:37:34.065Z,20.13
2022-08-07T02:40:30.266Z,20.13
2022-08-07T02:42:49.559Z,20.16
2022-08-07T02:45:59.353Z,20.33
2022-08-07T02:48:03.902Z,19.94
2022-08-07T02:50:36.651Z,19.90
2022-08-07T02:53:03.377Z,19.68
2022-08-07T02:56:03.682Z,19.76
2022-08-07T02:58:19.365Z,19.65
2022-08-07T03:00:50.512Z,19.76
2022-08-07T03:03:22.886Z,19.38
2022-08-07T03:05:50.035Z,19.28
2022-08-07T03:08:20.395Z,19.07
2022-08-07T03:10:56.044Z,19.08
2022-08-07T03:13:22.585Z,18.98
2022-08-07T03:15:56.243Z,19.27
2022-08-07T03:18:24.478Z,19.18
2022-08-07T03:21:01.641Z,19.20
2022-08-07T03:23:33.826Z,19.32
2022-08-07T03:26:21.110Z,19.51
2022-08-07T03:28:50.322Z,19.53
2022-08-07T03:31:24.576Z,19.72
2022-08-07T03:33:51.411Z,20.00
2022-08-07T03:36:18.857Z,19.50
2022-08-07T03:38:45.353Z,19.54
2022-08-07T03:41:13.652Z,19.49
2022-08-07T03:43:44.123Z,19.40
2022-08-07T03:46:23.622Z,19.52
2022-08-07T03:49:02.217Z,19.60
2022-08-07T03:51:31.026Z,19.63
2022-08-07T03:54:35.676Z,19.63
2022-08-07T03:57:03.986Z,20.01
2022-08-07T03:59:34.646Z,20.18
2022-08-07T04:02:01.280Z,19.87
2022-08-07T04:04:28.055Z,20.22
2022-08-07T04:07:00.126Z,20.05
2022-08-07T04:09:44.711Z,19.79
2022-08-07T04:12:24.712Z,19.89
2022-08-07T04:15:06.108Z,19.87
2022-08-07T04:18:56.346Z,19.91
2022-08-07T04:20:19.511Z,19.78
2022-08-07T04:22:53.397Z,19.73
2022-08-07T04:25:20.449Z,19.67
2022-08-07T04:27:59.438Z,19.77
2022-08-07T04:30:43.970Z,20.24
2022-08-07T04:33:15.673Z,20.17
2022-08-07T04:35:42.466Z,20.06
2022-08-07T04:38:11.519Z,19.81
2022-08-07T04:40:51.362Z,20.04
2022-08-07T04:43:19.669Z,20.21
2022-08-07T04:46:01.412Z,20.01
2022-08-07T04:48:28.823Z,19.71
2022-08-07T04:50:55.414Z,19.46
2022-08-07T04:53:39.872Z,19.42
2022-08-07T04:58:11.335Z,19.75
2022-08-07T04:59:18.132Z,19.69
2022-08-07T05:01:42.245Z,19.61
2022-08-07T05:04:17.097Z,19.77
2022-08-07T05:06:51.338Z,19.73
2022-08-07T05:09:27.962Z,19.53
2022-08-07T05:12:06.988Z,19.55
2022-08-07T05:14:52.508Z,19.85
2022-08-07T05:17:51.569Z,19.71
2022-08-07T05:20:09.809Z,19.48
2022-08-07T05:22:36.794Z,19.47
2022-08-07T05:25:03.437Z,19.45
2022-08-07T05:28:03.449Z,19.38
2022-08-07T05:30:30.225Z,19.31
2022-08-07T05:32:59.680Z,19.15
2022-08-07T05:35:33.891Z,19.27
2022-08-07T05:38:09.805Z,19.48
2022-08-07T05:40:50.286Z,19.34
2022-08-07T05:44:07.577Z,19.30
2022-08-07T05:46:07.251Z,19.39
2022-08-07T05:48:34.842Z,19.53
2022-08-07T05:51:01.458Z,19.55
2022-08-07T05:54:13.062Z,19.66
2022-08-07T05:56:17.005Z,19.64
2022-08-07T05:58:49.169Z,19.31
2022-08-07T06:01:19.339Z,19.29
2022-08-07T06:03:56.953Z,19.51
2022-08-07T06:06:29.979Z,19.44
2022-08-07T06:08:59.446Z,19.72
2022-08-07T06:11:26.270Z,19.79
2022-08-07T06:14:12.256Z,19.59
2022-08-07T06:16:39.381Z,19.38
2022-08-07T06:19:06.578Z,19.29
2022-08-07T06:22:15.984Z,19.36
2022-08-07T06:24:52.235Z,19.25
2022-08-07T06:27:07.179Z,19.16
2022-08-07T06:29:34.731Z,19.14
2022-08-07T06:32:05.620Z,19.17
2022-08-07T06:34:32.384Z,19.31
2022-08-07T06:37:02.562Z,19.50
2022-08-07T06:40:17.433Z,19.51
2022-08-07T06:42:18.279Z,19.47
2022-08-07T06:44:44.889Z,19.55
2022-08-07T06:47:17.806Z,19.56
2022-08-07T06:49:51.502Z,19.60
2022-08-07T06:52:31.942Z,19.72
2022-08-07T06:55:31.764Z,19.81
2022-08-07T06:57:50.929Z,19.90
2022-08-07T07:00:19.118Z,19.99
2022-08-07T07:02:53.540Z,20.06
2022-08-07T07:06:03.226Z,20.12
2022-08-07T07:08:12.659Z,20.11
2022-08-07T07:10:47.545Z,20.31
2022-08-07T07:13:56.072Z,20.78
2022-08-07T07:16:10.388Z,20.36
2022-08-07T07:18:47.512Z,20.20
2022-08-07T07:21:19.621Z,19.99
2022-08-07T07:24:08.079Z,19.94
2022-08-07T07:26:36.874Z,19.68
2022-08-07T07:29:38.609Z,19.84
2022-08-07T08:04:12.203Z,20.89
2022-08-07T08:06:50.793Z,20.74
2022-08-07T08:12:05.233Z,21.11
2022-08-07T08:14:34.184Z,21.23
2022-08-07T08:17:32.462Z,21.00
2022-08-07T08:20:17.082Z,21.59
2022-08-07T08:46:11.845Z,22.10
2022-08-07T08:48:39.557Z,22.85
2022-08-07T08:51:29.533Z,22.38
2022-08-07T08:54:07.255Z,22.10
2022-08-07T08:56:35.138Z,21.96
2022-08-07T09:02:12.162Z,22.18
2022-08-07T09:04:50.167Z,22.34
2022-08-07T09:13:36.748Z,24.51
2022-08-07T09:19:52.128Z,24.46
2022-08-07T09:22:22.753Z,23.81
2022-08-07T09:24:58.594Z,24.26
2022-08-07T09:27:31.876Z,24.71
2022-08-07T09:30:25.514Z,24.32
2022-08-07T09:32:54.771Z,23.51
2022-08-07T09:36:04.243Z,23.58
2022-08-07T09:38:10.324Z,24.77
2022-08-07T09:40:45.603Z,23.84
2022-08-07T09:50:00.935Z,25.33
2022-08-07T09:52:34.537Z,26.19
2022-08-07T09:57:56.158Z,26.83
2022-08-07T10:00:31.912Z,27.12
2022-08-07T10:03:08.062Z,27.42
2022-08-07T10:06:00.107Z,27.16
2022-08-07T10:08:21.960Z,27.56
2022-08-07T10:14:01.003Z,27.71
2022-08-07T10:16:24.433Z,28.18
2022-08-07T10:18:51.124Z,28.31
2022-08-07T10:22:01.198Z,27.62
2022-08-07T10:24:18.432Z,27.91
2022-08-07T10:26:53.090Z,28.29
2022-08-07T10:29:20.204Z,28.68
2022-08-07T10:31:49.050Z,28.51
2022-08-07T10:34:18.111Z,28.21
2022-08-07T10:36:45.463Z,27.90
2022-08-07T10:39:12.268Z,28.46
2022-08-07T10:41:51.308Z,28.43
2022-08-07T10:44:33.814Z,28.33
2022-08-07T10:47:11.532Z,27.59
2022-08-07T10:49:49.772Z,28.30
2022-08-07T10:55:39.576Z,28.37
2022-08-07T10:58:10.811Z,28.26
2022-08-07T11:00:43.295Z,27.74
2022-08-07T11:03:17.784Z,28.25
2022-08-07T11:05:48.888Z,28.13
2022-08-07T11:08:18.990Z,28.36
2022-08-07T11:14:41.994Z,28.70
2022-08-07T11:16:19.536Z,28.90
2022-08-07T11:18:50.723Z,28.95
2022-08-07T11:21:18.056Z,28.91
2022-08-07T11:23:48.404Z,28.99
2022-08-07T11:26:16.735Z,28.97
2022-08-07T11:28:53.490Z,29.51
2022-08-07T11:31:25.137Z,29.39
2022-08-07T11:33:59.189Z,28.70
2022-08-07T11:36:30.773Z,27.91
2022-08-07T11:38:57.605Z,28.00
2022-08-07T11:41:59.920Z,28.03
2022-08-07T11:44:18.488Z,27.64
2022-08-07T11:46:48.878Z,26.33
2022-08-07T11:49:27.847Z,26.55
2022-08-07T11:52:05.961Z,27.78
2022-08-07T11:54:34.438Z,27.94
2022-08-07T11:57:12.620Z,28.11
2022-08-07T12:00:10.682Z,28.14
2022-08-07T12:02:30.342Z,27.29
2022-08-07T12:05:00.501Z,26.52
2022-08-07T12:07:39.165Z,25.56
2022-08-07T12:10:07.609Z,25.66
2022-08-07T12:12:36.192Z,25.52
2022-08-07T12:15:04.504Z,25.68
2022-08-07T12:17:34.149Z,25.70
2022-08-07T12:20:07.974Z,25.24
2022-08-07T12:22:55.936Z,25.21
2022-08-07T12:26:05.724Z,25.16
2022-08-07T12:28:11.757Z,25.39
2022-08-07T12:30:39.417Z,24.83
2022-08-07T12:33:23.414Z,25.55
2022-08-07T12:35:58.150Z,25.61
2022-08-07T12:38:42.844Z,25.14
2022-08-07T12:41:14.789Z,24.99
2022-08-07T12:44:03.046Z,25.63
2022-08-07T12:46:32.727Z,24.86
2022-08-07T12:49:09.870Z,24.83
2022-08-07T12:52:11.830Z,24.70
2022-08-07T12:54:39.460Z,24.60
2022-08-07T12:57:09.568Z,24.48
2022-08-07T12:59:54.329Z,24.98
2022-08-07T13:02:25.535Z,24.89
2022-08-07T13:05:01.567Z,24.96
2022-08-07T13:08:14.076Z,25.20
2022-08-07T13:10:28.526Z,24.76
2022-08-07T13:13:04.956Z,24.56
2022-08-07T13:15:34.396Z,24.73
2022-08-07T13:18:03.280Z,24.65
2022-08-07T13:20:37.548Z,24.69
2022-08-07T13:23:59.828Z,24.91
2022-08-07T13:26:00.839Z,25.13
2022-08-07T13:28:28.272Z,25.64
2022-08-07T13:31:01.719Z,25.43
2022-08-07T13:34:31.778Z,25.91
2022-08-07T13:36:22.275Z,25.94
2022-08-07T13:38:54.445Z,25.72
2022-08-07T13:41:24.544Z,25.26
2022-08-07T13:43:56.306Z,25.35
2022-08-07T13:46:28.853Z,24.73
2022-08-07T13:48:59.430Z,24.49
2022-08-07T13:52:05.081Z,24.85
2022-08-07T13:54:22.680Z,25.12
2022-08-07T13:56:55.791Z,25.45
2022-08-07T13:59:22.918Z,25.47
2022-08-07T14:01:51.374Z,25.90
2022-08-07T14:04:36.126Z,25.57
2022-08-07T14:07:06.587Z,24.89
2022-08-07T14:10:12.265Z,25.57
2022-08-07T14:12:28.065Z,25.69
2022-08-07T14:14:54.846Z,24.76
2022-08-07T14:18:12.801Z,24.37
2022-08-07T14:20:40.599Z,24.67
2022-08-07T14:22:57.835Z,24.99
2022-08-07T14:25:29.386Z,24.92
2022-08-07T14:28:10.483Z,24.99
2022-08-07T14:30:40.655Z,24.72
2022-08-07T14:33:07.779Z,25.29
2022-08-07T14:35:45.626Z,24.60
2022-08-07T14:38:30.483Z,24.53
2022-08-07T14:40:58.700Z,24.69
2022-08-07T14:43:58.865Z,24.98
2022-08-07T14:46:12.755Z,25.18
2022-08-07T14:48:48.475Z,25.21
2022-08-07T14:51:17.317Z,24.71
2022-08-07T14:54:05.740Z,25.18
2022-08-07T14:56:34.456Z,25.23
2022-08-07T14:59:03.759Z,25.39
2022-08-07T15:04:29.753Z,24.93
2022-08-07T15:07:01.080Z,24.90
2022-08-07T15:09:59.030Z,24.88
2022-08-07T15:15:07.752Z,25.03
2022-08-07T15:17:55.589Z,24.85
2022-08-07T15:20:32.475Z,25.14
2022-08-07T15:25:59.016Z,25.75
2022-08-07T15:32:01.161Z,25.08
2022-08-07T15:34:01.186Z,25.09
2022-08-07T15:37:03.949Z,25.29
2022-08-07T15:39:17.182Z,25.29
2022-08-07T15:42:43.994Z,25.48
2022-08-07T15:44:32.376Z,25.44
2022-08-07T15:47:03.482Z,25.29
2022-08-07T15:52:30.437Z,25.40
2022-08-07T15:54:58.017Z,25.16
2022-08-07T15:57:40.000Z,25.43
2022-08-07T16:00:31.503Z,25.29
2022-08-07T16:03:00.882Z,25.06
2022-08-07T16:28:04.370Z,24.27
2022-08-07T16:30:33.301Z,24.43
2022-08-07T16:35:58.450Z,24.99
2022-08-07T16:38:57.217Z,24.73
2022-08-07T16:41:20.766Z,24.97
2022-08-07T16:44:03.674Z,25.55
2022-08-07T16:47:04.802Z,26.00
2022-08-07T16:50:27.752Z,25.70
2022-08-07T16:52:51.513Z,25.08
2022-08-07T16:55:11.406Z,25.09
2022-08-07T16:58:02.253Z,25.27
2022-08-07T17:00:31.616Z,26.25
2022-08-07T17:03:04.922Z,26.32
2022-08-07T17:06:28.501Z,25.72
2022-08-07T17:08:25.980Z,25.26
2022-08-07T17:10:54.946Z,25.50
2022-08-07T17:13:22.956Z,26.44
2022-08-07T17:15:50.878Z,26.91
2022-08-07T17:18:18.669Z,27.36
2022-08-07T17:20:47.380Z,25.66
2022-08-07T17:23:23.111Z,25.12
2022-08-07T17:25:59.617Z,24.80
2022-08-07T17:28:31.267Z,25.51
2022-08-07T17:31:16.619Z,26.50
2022-08-07T17:34:18.242Z,26.60
2022-08-07T17:36:31.538Z,27.33
2022-08-07T17:38:58.612Z,26.44
2022-08-07T17:42:04.282Z,25.20
2022-08-07T17:44:33.279Z,25.33
2022-08-07T17:47:02.665Z,24.93
2022-08-07T17:49:30.670Z,24.73
2022-08-07T17:52:12.749Z,24.38
2022-08-07T17:54:55.183Z,25.15
2022-08-07T17:57:22.853Z,24.87
2022-08-07T17:59:54.562Z,24.55
2022-08-07T18:02:26.185Z,24.67
2022-08-07T18:05:04.390Z,24.73
2022-08-07T18:07:52.749Z,25.12
2022-08-07T18:10:32.413Z,24.93
2022-08-07T18:13:03.241Z,25.10
2022-08-07T18:15:37.598Z,25.39
2022-08-07T18:18:45.313Z,25.20
2022-08-07T18:21:10.406Z,25.90
2022-08-07T18:23:50.815Z,25.82
2022-08-07T18:26:24.756Z,25.86
2022-08-07T18:28:58.299Z,25.92
2022-08-07T18:31:33.887Z,25.10
2022-08-07T18:34:37.004Z,25.18
2022-08-07T18:36:57.870Z,25.45
2022-08-07T18:40:08.957Z,25.79
2022-08-07T18:42:28.874Z,26.37
2022-08-07T18:47:44.808Z,25.75
2022-08-07T18:50:39.224Z,24.31
2022-08-07T18:53:12.366Z,25.17
2022-08-07T18:55:55.469Z,25.69
2022-08-07T18:58:30.372Z,25.27
2022-08-07T19:01:00.925Z,25.57
2022-08-07T19:03:37.473Z,25.79
2022-08-07T19:06:05.432Z,25.54
2022-08-07T19:08:33.058Z,25.46
2022-08-07T19:10:59.937Z,26.02
2022-08-07T19:13:27.467Z,25.90
2022-08-07T19:16:03.041Z,25.53
2022-08-07T19:18:34.692Z,26.21
2022-08-07T19:21:09.188Z,25.52
2022-08-07T19:23:57.918Z,26.27
2022-08-07T19:26:55.507Z,26.00
2022-08-07T19:30:55.492Z,26.26
2022-08-07T19:32:17.427Z,26.17
2022-08-07T19:34:55.051Z,26.18
2022-08-07T19:37:23.385Z,25.08
2022-08-07T19:39:57.288Z,24.79
2022-08-07T19:42:30.389Z,24.56
2022-08-07T19:45:00.581Z,24.82
2022-08-07T19:47:36.793Z,24.66
2022-08-07T19:50:44.485Z,24.99
2022-08-07T19:52:59.011Z,24.74
2022-08-07T19:55:57.317Z,24.52
2022-08-07T19:58:18.331Z,25.10
2022-08-07T20:00:55.581Z,25.49
2022-08-07T20:03:34.751Z,25.23
2022-08-07T20:06:03.050Z,24.69
2022-08-07T20:08:31.266Z,24.48
2022-08-07T20:11:03.603Z,25.08
2022-08-07T20:13:32.353Z,24.30
2022-08-07T20:15:59.120Z,24.71
2022-08-07T20:18:32.548Z,25.09
2022-08-07T20:20:59.794Z,24.36
2022-08-07T20:23:43.361Z,23.54
2022-08-07T20:26:15.344Z,22.85
2022-08-07T20:28:56.829Z,22.53
2022-08-07T20:31:23.395Z,22.54
2022-08-07T20:33:49.942Z,22.43
2022-08-07T20:36:23.762Z,22.27
2022-08-07T20:38:53.655Z,22.29
2022-08-07T20:41:27.535Z,22.18
2022-08-07T20:43:57.531Z,22.15
2022-08-07T20:46:31.135Z,22.63
2022-08-07T20:49:58.886Z,22.33
2022-08-07T20:51:50.215Z,22.37
2022-08-07T20:54:30.164Z,22.35
2022-08-07T21:21:49.236Z,21.79
2022-08-07T21:24:24.931Z,21.53
2022-08-07T21:26:51.771Z,21.36
2022-08-07T21:29:19.846Z,21.46
2022-08-07T21:32:10.886Z,21.48
2022-08-07T21:34:33.278Z,21.97
2022-08-07T21:37:00.158Z,22.30
2022-08-07T21:39:45.357Z,22.34
2022-08-07T21:45:42.154Z,21.66
2022-08-07T21:47:51.499Z,22.29
2022-08-07T21:50:18.586Z,22.28
2022-08-07T21:52:47.136Z,22.46
2022-08-07T21:55:14.067Z,21.91
2022-08-07T21:57:52.357Z,22.11
2022-08-07T22:00:25.312Z,22.19
2022-08-07T22:03:03.357Z,22.32
2022-08-07T22:05:44.328Z,22.89
2022-08-07T22:08:19.801Z,22.41
2022-08-07T22:10:49.685Z,22.96
2022-08-07T22:13:24.494Z,23.22
2022-08-07T22:16:42.993Z,23.57
2022-08-07T22:18:57.939Z,23.31
2022-08-07T22:22:01.983Z,23.91
2022-08-07T22:24:16.570Z,23.54
2022-08-07T22:26:44.900Z,22.07
2022-08-07T22:32:00.319Z,21.07
2022-08-07T22:34:36.987Z,21.50
2022-08-07T22:39:52.497Z,21.45
2022-08-07T22:42:20.227Z,21.79
2022-08-07T22:44:59.187Z,21.88
2022-08-07T22:47:26.413Z,22.33
2022-08-07T22:49:55.006Z,22.90
2022-08-07T22:52:36.962Z,23.02
2022-08-07T22:55:17.733Z,23.06
2022-08-07T22:57:50.378Z,23.00
2022-08-07T23:00:17.047Z,22.92
2022-08-07T23:02:46.045Z,23.08
2022-08-07T23:06:10.074Z,22.80
2022-08-07T23:07:59.324Z,23.21
2022-08-07T23:10:36.497Z,23.47
2022-08-07T23:13:06.476Z,24.03
2022-08-07T23:16:05.523Z,23.74
2022-08-07T23:18:21.031Z,22.70
2022-08-07T23:20:52.900Z,23.13
2022-08-07T23:24:05.935Z,22.68
2022-08-07T23:26:07.082Z,22.21
2022-08-07T23:28:34.540Z,22.00
2022-08-07T23:31:06.802Z,21.43
2022-08-07T23:34:22.990Z,21.16
2022-08-07T23:36:29.074Z,20.92
2022-08-07T23:38:56.800Z,20.99
2022-08-07T23:41:24.529Z,21.02
2022-08-07T23:44:01.560Z,21.46
2022-08-07T23:46:28.388Z,21.05
2022-08-07T23:48:59.947Z,20.96
2022-08-07T23:52:59.976Z,20.84
2022-08-07T23:54:19.835Z,20.92
2022-08-07T23:57:09.404Z,21.25
